Terminal Aerodrome Forecast
Issued by NWS Milwaukee/Sullivan, WI

Home | Current Version | Previous Version | Text Only | Print | Product List | Glossary On
Versions: 1 2 3 4 5 6 7 8 9 10 11 12 13 14 15 16 17 18 19 20 21 22 23 24 25 26 27 28 29 30 31 32 33 34 35 36 37 38 39 40 41 42 43 44 45
000
FTUS43 KMKX 261453 AAB
TAFMSN
TAF AMD
KMSN 261453Z 2615/2712 22004KT P6SM BKN030 BKN050
     FM261700 22006KT P6SM SCT050 BKN100
     FM270500 24003KT 5SM BR BKN120
     FM271100 25004KT 4SM BR VCSH SCT040 BKN080=

USA.gov is the U.S. government's official web portal to all federal, state and local government web resources and services.